createdAt,value
2023-01-09T00:02:19.963Z,21.62
2023-01-09T00:05:05.583Z,21.61
2023-01-09T00:07:50.900Z,21.60
2023-01-09T00:10:36.234Z,21.62
2023-01-09T00:13:21.466Z,21.62
2023-01-09T00:16:08.362Z,21.62
2023-01-09T00:18:53.896Z,21.63
2023-01-09T00:21:39.249Z,21.63
2023-01-09T00:24:24.586Z,21.61
2023-01-09T00:27:09.862Z,21.63
2023-01-09T00:29:57.329Z,21.62
2023-01-09T00:32:42.556Z,21.62
2023-01-09T00:35:29.017Z,21.62
2023-01-09T00:38:14.427Z,21.62
2023-01-09T00:41:01.260Z,21.62
2023-01-09T00:43:51.791Z,21.62
2023-01-09T00:46:40.682Z,21.62
2023-01-09T00:49:30.266Z,21.61
2023-01-09T00:52:15.935Z,21.62
2023-01-09T00:55:02.751Z,21.62
2023-01-09T00:57:48.700Z,21.61
2023-01-09T01:00:34.154Z,21.62
2023-01-09T01:03:19.381Z,21.62
2023-01-09T01:06:23.337Z,21.62
2023-01-09T01:09:08.495Z,21.61
2023-01-09T01:11:53.798Z,21.61
2023-01-09T01:14:39.324Z,21.61
2023-01-09T01:17:24.848Z,21.61
2023-01-09T01:20:13.568Z,21.61
2023-01-09T01:22:59.196Z,21.62
2023-01-09T01:25:44.746Z,21.60
2023-01-09T01:28:29.963Z,21.61
2023-01-09T01:31:19.110Z,21.61
2023-01-09T01:34:04.999Z,21.61
2023-01-09T01:36:50.452Z,21.61
2023-01-09T01:39:35.690Z,21.61
2023-01-09T01:42:20.987Z,21.59
2023-01-09T01:45:06.270Z,21.59
2023-01-09T01:48:06.314Z,21.59
2023-01-09T01:51:06.079Z,21.59
2023-01-09T01:53:55.159Z,21.58
2023-01-09T01:56:46.657Z,21.58
2023-01-09T01:59:38.390Z,21.59
2023-01-09T02:02:28.262Z,21.59
2023-01-09T02:05:13.733Z,21.58
2023-01-09T02:07:58.876Z,21.58
2023-01-09T02:10:45.583Z,21.58
2023-01-09T02:13:34.404Z,21.58
2023-01-09T02:16:47.933Z,21.57
2023-01-09T02:19:53.607Z,21.57
2023-01-09T02:22:58.161Z,21.56
2023-01-09T02:26:05.521Z,21.56
2023-01-09T02:29:28.544Z,21.55
2023-01-09T02:32:58.853Z,21.56
2023-01-09T02:36:04.880Z,21.56
2023-01-09T02:39:05.237Z,21.55
2023-01-09T02:42:07.725Z,21.56
2023-01-09T02:44:53.473Z,21.56
2023-01-09T02:47:45.249Z,21.54
2023-01-09T02:50:30.654Z,21.55
2023-01-09T02:53:33.171Z,21.55
2023-01-09T02:56:24.669Z,21.55
2023-01-09T02:59:34.139Z,21.54
2023-01-09T03:02:44.612Z,21.54
2023-01-09T03:05:37.559Z,21.54
2023-01-09T03:08:40.002Z,21.53
2023-01-09T03:11:28.578Z,21.54
2023-01-09T03:14:22.925Z,21.53
2023-01-09T03:17:14.268Z,21.53
2023-01-09T03:20:02.922Z,21.54
2023-01-09T03:23:07.719Z,21.53
2023-01-09T03:25:53.063Z,21.53
2023-01-09T03:28:38.415Z,21.53
2023-01-09T03:31:23.982Z,21.53
2023-01-09T03:34:09.420Z,21.53
2023-01-09T03:36:54.957Z,21.52
2023-01-09T03:39:40.809Z,21.52
2023-01-09T03:42:26.274Z,21.53
2023-01-09T03:45:11.676Z,21.51
2023-01-09T03:47:58.583Z,21.48
2023-01-09T03:50:45.969Z,21.49
2023-01-09T03:53:31.230Z,21.47
2023-01-09T03:56:16.473Z,21.46
2023-01-09T03:59:01.875Z,21.46
2023-01-09T04:09:47.059Z,21.42
2023-01-09T04:12:31.796Z,21.42
2023-01-09T04:15:16.687Z,21.42
2023-01-09T04:18:02.971Z,21.42
2023-01-09T04:20:48.721Z,21.43
2023-01-09T04:23:33.456Z,21.43
2023-01-09T04:26:17.958Z,21.41
2023-01-09T04:34:25.149Z,21.37
2023-01-09T04:37:10.364Z,21.36
2023-01-09T04:39:55.420Z,21.34
2023-01-09T04:42:40.657Z,21.35
2023-01-09T04:45:25.289Z,21.34
2023-01-09T04:48:10.899Z,21.34
2023-01-09T04:50:57.018Z,21.33
2023-01-09T04:53:42.583Z,21.32
2023-01-09T04:56:27.787Z,21.32
2023-01-09T04:59:13.654Z,21.35
2023-01-09T05:02:00.323Z,21.39
2023-01-09T05:04:45.694Z,21.42
2023-01-09T05:07:31.080Z,21.48
2023-01-09T05:10:16.724Z,21.50
2023-01-09T05:13:01.776Z,21.55
2023-01-09T05:15:47.159Z,21.59
2023-01-09T05:18:33.449Z,21.63
2023-01-09T05:21:18.647Z,21.62
2023-01-09T05:24:04.048Z,21.60
2023-01-09T05:26:49.355Z,21.65
2023-01-09T05:29:34.962Z,21.75
2023-01-09T05:32:20.255Z,21.75
2023-01-09T05:35:06.310Z,21.77
2023-01-09T05:37:51.655Z,21.79
2023-01-09T05:40:40.375Z,21.82
2023-01-09T05:43:26.334Z,21.85
2023-01-09T05:46:11.424Z,21.85
2023-01-09T05:48:56.844Z,21.88
2023-01-09T05:51:42.654Z,21.87
2023-01-09T06:02:41.845Z,21.76
2023-01-09T06:05:27.928Z,21.75
2023-01-09T06:08:13.104Z,21.73
2023-01-09T06:10:58.745Z,21.74
2023-01-09T06:13:44.408Z,21.73
2023-01-09T06:16:29.772Z,21.68
2023-01-09T06:19:14.958Z,21.65
2023-01-09T06:22:00.246Z,21.64
2023-01-09T06:24:45.352Z,21.62
2023-01-09T06:27:30.799Z,21.59
2023-01-09T06:30:16.338Z,21.57
2023-01-09T06:33:01.581Z,21.54
2023-01-09T06:35:47.347Z,21.53
2023-01-09T06:38:32.739Z,21.52
2023-01-09T06:41:18.157Z,21.51
2023-01-09T06:44:03.533Z,21.49
2023-01-09T06:46:48.683Z,21.48
2023-01-09T06:49:34.089Z,21.48
2023-01-09T06:52:19.360Z,21.49
2023-01-09T06:55:05.274Z,21.45
2023-01-09T06:57:50.485Z,21.43
2023-01-09T07:00:36.379Z,21.41
2023-01-09T07:03:22.621Z,21.41
2023-01-09T07:06:08.067Z,21.39
2023-01-09T07:08:53.447Z,21.39
2023-01-09T07:11:39.251Z,21.38
2023-01-09T07:14:24.425Z,21.38
2023-01-09T07:17:13.455Z,21.37
2023-01-09T07:20:00.168Z,21.35
2023-01-09T07:31:09.216Z,21.33
2023-01-09T07:33:54.366Z,21.33
2023-01-09T07:36:39.678Z,21.33
2023-01-09T07:39:24.759Z,21.33
2023-01-09T07:42:10.333Z,21.32
2023-01-09T07:44:56.004Z,21.32
2023-01-09T07:47:42.066Z,21.31
2023-01-09T07:50:27.778Z,21.29
2023-01-09T07:53:13.095Z,21.29
2023-01-09T07:55:58.444Z,21.28
2023-01-09T07:58:43.587Z,21.28
2023-01-09T08:01:28.977Z,21.29
2023-01-09T08:04:14.313Z,21.27
2023-01-09T08:06:59.511Z,21.26
2023-01-09T08:09:44.857Z,21.25
2023-01-09T08:12:30.045Z,21.25
2023-01-09T08:15:16.076Z,21.25
2023-01-09T08:18:01.638Z,21.23
2023-01-09T08:20:51.501Z,21.23
2023-01-09T08:23:37.826Z,21.22
2023-01-09T08:26:22.905Z,21.23
2023-01-09T08:29:08.100Z,21.22
2023-01-09T08:31:53.493Z,21.20
2023-01-09T08:34:38.858Z,21.21
2023-01-09T08:37:24.172Z,21.21
2023-01-09T08:40:10.200Z,21.21
2023-01-09T08:43:13.968Z,21.20
2023-01-09T08:46:17.830Z,21.19
2023-01-09T08:49:03.193Z,21.18
2023-01-09T08:51:48.547Z,21.17
2023-01-09T08:54:36.780Z,21.18
2023-01-09T08:57:22.267Z,21.17
2023-01-09T09:00:08.237Z,21.18
2023-01-09T09:02:56.131Z,21.17
2023-01-09T09:05:41.851Z,21.16
2023-01-09T09:08:27.175Z,21.16
2023-01-09T09:11:12.625Z,21.17
2023-01-09T09:13:58.667Z,21.18
2023-01-09T09:16:44.106Z,21.15
2023-01-09T09:19:29.371Z,21.16
2023-01-09T09:22:14.484Z,21.17
2023-01-09T09:24:59.790Z,21.16
2023-01-09T09:27:45.411Z,21.16
2023-01-09T09:30:30.973Z,21.15
2023-01-09T09:33:16.266Z,21.15
2023-01-09T09:36:01.405Z,21.15
2023-01-09T09:38:46.753Z,21.15
2023-01-09T09:42:06.351Z,21.14
2023-01-09T09:45:00.605Z,21.15
2023-01-09T09:48:24.531Z,21.15
2023-01-09T09:51:27.972Z,21.15
2023-01-09T09:54:15.778Z,21.14
2023-01-09T09:57:03.973Z,21.16
2023-01-09T09:59:51.580Z,21.16
2023-01-09T10:03:01.362Z,21.14
2023-01-09T10:05:50.310Z,21.15
2023-01-09T10:08:55.624Z,21.14
2023-01-09T10:11:53.470Z,21.15
2023-01-09T10:14:39.553Z,21.15
2023-01-09T10:17:40.046Z,21.14
2023-01-09T10:20:25.559Z,21.14
2023-01-09T10:23:31.616Z,21.14
2023-01-09T10:26:25.124Z,21.13
2023-01-09T10:29:40.221Z,21.15
2023-01-09T10:32:56.264Z,21.14
2023-01-09T10:35:47.772Z,21.14
2023-01-09T10:38:39.017Z,21.14
2023-01-09T10:41:55.759Z,21.13
2023-01-09T10:44:53.920Z,21.14
2023-01-09T10:47:40.798Z,21.14
2023-01-09T10:50:29.962Z,21.15
2023-01-09T10:53:21.264Z,21.14
2023-01-09T10:56:24.535Z,21.15
2023-01-09T10:59:10.067Z,21.14
2023-01-09T11:01:55.762Z,21.14
2023-01-09T11:04:43.484Z,21.14
2023-01-09T11:07:33.090Z,21.14
2023-01-09T11:10:19.112Z,21.13
2023-01-09T11:13:15.434Z,21.14
2023-01-09T11:16:09.355Z,21.14
2023-01-09T11:18:58.708Z,21.14
2023-01-09T11:21:44.500Z,21.14
2023-01-09T11:24:31.378Z,21.14
2023-01-09T11:27:25.952Z,21.13
2023-01-09T11:30:27.727Z,21.13
2023-01-09T11:33:19.237Z,21.13
2023-01-09T11:36:11.539Z,21.13
2023-01-09T11:38:59.012Z,21.12
2023-01-09T11:41:44.505Z,21.11
2023-01-09T11:44:32.111Z,21.12
2023-01-09T11:47:35.050Z,21.11
2023-01-09T11:50:25.137Z,21.12
2023-01-09T11:53:19.557Z,21.11
2023-01-09T11:56:05.323Z,21.12
2023-01-09T11:58:50.978Z,21.11
2023-01-09T12:02:00.616Z,21.11
2023-01-09T12:05:01.128Z,21.10
2023-01-09T12:08:05.963Z,21.11
2023-01-09T12:11:07.041Z,21.10
2023-01-09T12:14:11.288Z,21.10
2023-01-09T12:16:59.909Z,21.10
2023-01-09T12:20:00.547Z,21.10
2023-01-09T12:23:11.064Z,21.11
2023-01-09T12:26:02.612Z,21.12
2023-01-09T12:29:08.136Z,21.09
2023-01-09T12:31:59.493Z,21.10
2023-01-09T12:35:18.234Z,21.09
2023-01-09T12:38:05.280Z,21.10
2023-01-09T12:41:11.698Z,21.08
2023-01-09T12:44:24.258Z,21.07
2023-01-09T12:47:34.719Z,21.08
2023-01-09T12:50:57.688Z,21.07
2023-01-09T12:54:10.845Z,21.06
2023-01-09T12:57:04.047Z,21.08
2023-01-09T12:59:56.320Z,21.06
2023-01-09T13:03:12.642Z,21.06
2023-01-09T13:05:58.666Z,21.06
2023-01-09T13:08:53.336Z,21.07
2023-01-09T13:11:44.620Z,21.06
2023-01-09T13:14:44.569Z,21.05
2023-01-09T13:17:36.459Z,21.06
2023-01-09T13:20:33.753Z,21.06
2023-01-09T13:23:28.216Z,21.05
2023-01-09T13:26:25.296Z,21.06
2023-01-09T13:29:35.342Z,21.04
2023-01-09T13:32:42.217Z,21.06
2023-01-09T13:35:27.719Z,21.06
2023-01-09T13:38:18.261Z,21.06
2023-01-09T13:41:46.263Z,21.06
2023-01-09T13:44:33.649Z,21.07
2023-01-09T13:47:23.340Z,21.05
2023-01-09T13:50:11.404Z,21.05
2023-01-09T13:52:56.909Z,21.04
2023-01-09T13:56:02.914Z,21.04
2023-01-09T13:58:54.366Z,21.06
2023-01-09T14:01:41.489Z,21.06
2023-01-09T14:04:36.457Z,21.12
2023-01-09T14:07:36.643Z,21.15
2023-01-09T14:10:25.971Z,21.20
2023-01-09T14:13:18.509Z,21.23
2023-01-09T14:16:20.314Z,21.27
2023-01-09T14:19:14.681Z,21.30
2023-01-09T14:22:00.904Z,21.33
2023-01-09T14:24:47.258Z,21.35
2023-01-09T14:27:54.112Z,21.42
2023-01-09T14:31:03.979Z,21.49
2023-01-09T14:33:49.675Z,21.52
2023-01-09T14:36:36.894Z,21.54
2023-01-09T14:39:24.236Z,21.55
2023-01-09T14:42:16.224Z,21.58
2023-01-09T14:45:23.767Z,21.62
2023-01-09T14:48:11.961Z,21.66
2023-01-09T14:50:59.922Z,21.69
2023-01-09T14:53:46.044Z,21.72
2023-01-09T14:56:33.404Z,21.75
2023-01-09T14:59:19.067Z,21.75
2023-01-09T15:02:04.379Z,21.78
2023-01-09T15:04:50.075Z,21.82
2023-01-09T15:07:44.269Z,21.85
2023-01-09T15:10:37.921Z,21.90
2023-01-09T15:13:37.190Z,21.92
2023-01-09T15:16:25.366Z,21.93
2023-01-09T15:19:15.269Z,21.93
2023-01-09T15:22:07.241Z,21.93
2023-01-09T15:24:52.614Z,21.96
2023-01-09T15:27:49.115Z,21.96
2023-01-09T15:30:36.387Z,21.98
2023-01-09T15:33:22.176Z,22.01
2023-01-09T15:36:17.831Z,22.04
2023-01-09T15:39:06.810Z,22.05
2023-01-09T15:42:32.332Z,22.07
2023-01-09T15:45:26.062Z,22.05
2023-01-09T15:48:32.985Z,22.07
2023-01-09T15:51:18.627Z,22.07
2023-01-09T15:54:04.616Z,22.11
2023-01-09T15:56:50.141Z,22.14
2023-01-09T15:59:35.516Z,22.16
2023-01-09T16:02:43.489Z,22.15
2023-01-09T16:05:31.469Z,22.16
2023-01-09T16:08:26.741Z,22.14
2023-01-09T16:11:24.370Z,22.16
2023-01-09T16:14:13.557Z,22.15
2023-01-09T16:17:06.886Z,22.17
2023-01-09T16:20:25.777Z,22.22
2023-01-09T16:23:31.816Z,22.23
2023-01-09T16:26:21.382Z,22.24
2023-01-09T16:29:38.679Z,22.27
2023-01-09T16:32:36.103Z,22.33
2023-01-09T16:35:24.748Z,22.36
2023-01-09T16:38:14.348Z,22.40
2023-01-09T16:41:43.210Z,22.41
2023-01-09T16:44:28.649Z,22.45
2023-01-09T16:47:14.251Z,22.44
2023-01-09T16:50:00.215Z,22.49
2023-01-09T16:52:47.320Z,22.49
2023-01-09T16:55:33.406Z,22.53
2023-01-09T16:58:25.771Z,22.53
2023-01-09T17:01:13.559Z,22.53
2023-01-09T17:03:59.063Z,22.53
2023-01-09T17:06:44.935Z,22.52
2023-01-09T17:09:30.484Z,22.51
2023-01-09T17:12:21.868Z,22.51
2023-01-09T17:15:08.096Z,22.50
2023-01-09T17:17:53.463Z,22.51
2023-01-09T17:20:40.889Z,22.47
2023-01-09T17:23:26.140Z,22.46
2023-01-09T17:26:40.081Z,22.46
2023-01-09T17:29:25.471Z,22.45
2023-01-09T17:32:19.198Z,22.43
2023-01-09T17:35:05.203Z,22.42
2023-01-09T17:37:51.216Z,22.45
2023-01-09T17:40:36.642Z,22.41
2023-01-09T17:43:22.334Z,22.41
2023-01-09T17:46:16.349Z,22.42
2023-01-09T17:49:03.838Z,22.43
2023-01-09T17:51:49.455Z,22.45
2023-01-09T17:54:34.971Z,22.44
2023-01-09T17:57:20.661Z,22.46
2023-01-09T18:00:06.989Z,22.49
2023-01-09T18:02:55.339Z,22.50
2023-01-09T18:05:40.607Z,22.50
2023-01-09T18:08:25.915Z,22.51
2023-01-09T18:11:14.640Z,22.52
2023-01-09T18:14:02.135Z,22.53
2023-01-09T18:16:47.406Z,22.52
2023-01-09T18:19:33.710Z,22.53
2023-01-09T18:22:19.034Z,22.55
2023-01-09T18:25:05.321Z,22.57
2023-01-09T18:27:51.711Z,22.60
2023-01-09T18:30:37.310Z,22.59
2023-01-09T18:33:23.471Z,22.60
2023-01-09T18:36:10.277Z,22.56
2023-01-09T18:38:58.121Z,22.55
2023-01-09T18:41:43.625Z,22.52
2023-01-09T18:44:29.005Z,22.50
2023-01-09T18:47:14.302Z,22.49
2023-01-09T18:49:59.996Z,22.45
2023-01-09T18:52:45.499Z,22.44
2023-01-09T18:55:30.783Z,22.40
2023-01-09T18:58:16.511Z,22.35
2023-01-09T19:01:02.201Z,22.31
2023-01-09T19:03:47.672Z,22.27
2023-01-09T19:06:33.225Z,22.26
2023-01-09T19:09:18.941Z,22.22
2023-01-09T19:12:04.267Z,22.19
2023-01-09T19:14:49.563Z,22.17
2023-01-09T19:17:35.093Z,22.17
2023-01-09T19:20:20.739Z,22.14
2023-01-09T19:23:06.686Z,22.11
2023-01-09T19:25:53.990Z,22.08
2023-01-09T19:28:39.657Z,22.06
2023-01-09T19:31:28.137Z,22.02
2023-01-09T19:34:14.584Z,21.99
2023-01-09T19:37:00.096Z,21.98
2023-01-09T19:39:46.789Z,21.96
2023-01-09T19:42:32.050Z,21.95
2023-01-09T19:45:17.561Z,21.93
2023-01-09T19:48:02.842Z,21.93
2023-01-09T19:50:48.250Z,21.91
2023-01-09T19:53:35.719Z,21.90
2023-01-09T19:56:24.060Z,21.88
2023-01-09T19:59:10.185Z,21.86
2023-01-09T20:01:55.571Z,21.86
2023-01-09T20:04:40.911Z,21.84
2023-01-09T20:07:26.340Z,21.83
2023-01-09T20:10:11.877Z,21.83
2023-01-09T20:12:57.170Z,21.82
2023-01-09T20:15:42.689Z,21.81
2023-01-09T20:18:29.109Z,21.80
2023-01-09T20:21:22.232Z,21.79
2023-01-09T20:24:08.921Z,21.78
2023-01-09T20:26:54.463Z,21.77
2023-01-09T20:29:39.595Z,21.76
2023-01-09T20:32:25.173Z,21.76
2023-01-09T20:35:10.554Z,21.75
2023-01-09T20:37:55.844Z,21.75
2023-01-09T20:40:43.929Z,21.75
2023-01-09T20:43:29.379Z,21.75
2023-01-09T20:46:14.625Z,21.74
2023-01-09T20:49:03.363Z,21.74
2023-01-09T20:51:51.788Z,21.73
2023-01-09T20:54:41.044Z,21.72
2023-01-09T20:57:27.152Z,21.73
2023-01-09T21:00:13.077Z,21.72
2023-01-09T21:02:59.430Z,21.71
2023-01-09T21:05:44.770Z,21.69
2023-01-09T21:08:29.953Z,21.69
2023-01-09T21:11:15.313Z,21.67
2023-01-09T21:14:00.714Z,21.68
2023-01-09T21:16:54.049Z,21.66
2023-01-09T21:19:40.159Z,21.66
2023-01-09T21:22:25.530Z,21.66
2023-01-09T21:25:10.822Z,21.65
2023-01-09T21:27:56.081Z,21.64
2023-01-09T21:30:41.855Z,21.64
2023-01-09T21:33:27.102Z,21.63
2023-01-09T21:36:12.579Z,21.61
2023-01-09T21:38:58.884Z,21.60
2023-01-09T21:42:02.671Z,21.58
2023-01-09T21:45:06.941Z,21.56
2023-01-09T21:47:52.330Z,21.56
2023-01-09T21:50:37.579Z,21.54
2023-01-09T21:53:22.877Z,21.55
2023-01-09T21:56:08.386Z,21.54
2023-01-09T21:58:53.714Z,21.55
2023-01-09T22:01:39.245Z,21.55
2023-01-09T22:04:28.209Z,21.54
2023-01-09T22:07:13.409Z,21.55
2023-01-09T22:09:58.709Z,21.55
2023-01-09T22:13:03.791Z,21.55
2023-01-09T22:15:49.816Z,21.54
2023-01-09T22:18:36.176Z,21.54
2023-01-09T22:21:22.823Z,21.55
2023-01-09T22:24:09.291Z,21.54
2023-01-09T22:26:54.564Z,21.54
2023-01-09T22:29:40.349Z,21.54
2023-01-09T22:32:26.188Z,21.54
2023-01-09T22:35:11.463Z,21.53
2023-01-09T22:37:56.727Z,21.53
2023-01-09T22:40:41.857Z,21.53
2023-01-09T22:43:31.097Z,21.53
2023-01-09T22:46:16.778Z,21.53
2023-01-09T22:49:02.803Z,21.54
2023-01-09T22:51:48.272Z,21.52
2023-01-09T22:54:33.564Z,21.53
2023-01-09T22:57:18.665Z,21.53
2023-01-09T23:00:05.148Z,21.53
2023-01-09T23:02:50.585Z,21.52
2023-01-09T23:05:36.187Z,21.53
2023-01-09T23:08:21.293Z,21.53
2023-01-09T23:11:10.883Z,21.52
2023-01-09T23:13:56.396Z,21.52
2023-01-09T23:16:41.986Z,21.52
2023-01-09T23:19:27.618Z,21.51
2023-01-09T23:22:12.897Z,21.51
2023-01-09T23:24:58.241Z,21.52
2023-01-09T23:27:43.481Z,21.51
2023-01-09T23:30:28.877Z,21.52
2023-01-09T23:33:16.597Z,21.51
2023-01-09T23:36:02.027Z,21.50
2023-01-09T23:38:47.260Z,21.51
2023-01-09T23:41:51.219Z,21.51
2023-01-09T23:44:36.460Z,21.51
2023-01-09T23:47:21.884Z,21.51
2023-01-09T23:50:09.061Z,21.51
2023-01-09T23:52:54.698Z,21.49
2023-01-09T23:55:39.743Z,21.51
2023-01-09T23:58:26.503Z,21.50
